Cornettsville, Kentucky
Current Conditions -  °F | °C
As of 2:35 PM on Friday 31 Oct 2014 (Local Time) from KI35 Reporting Station
Overcast Overcast  
Wind Chill: 40°   Ceiling: 1800
Heat Index: 43°   Visibility: 10mi
Dew Point: 43°   Wind: 5mph
Humidity: 100%   Direction: 360°N
Pressure: 29.89"   Gusts: NA
Location:  37.13°N, 83.08°W
Report Text: KI35 311835Z AUTO 36004KT 10SM OVC018 06/06 A2989 RMK AO1
Loading
Personal Weather Stations






























Interactive Weather Map
Tropical Storm Tracking
New forecast layout! Learn more

10-Day Weather Forecast

Advertisements
Track Severe Weather on mobile